Time;durP1;ratioP1;P1;durP2;ratioP2;P2;SDS_P1;SDS_P2;PMS_P1;PMS_P2;Temp;Humidity;BMP_temperature;BMP_pressure;BME280_temperature;BME280_humidity;BME280_pressure;Samples;Min_cycle;Max_cycle;Signal;HPM_P1;HPM_P2
2023/01/01 00:01:10;;;;;;;39.08;24.55;;;12.10;73.50;;;;;;5028978;28;20025;-76
2023/01/01 00:03:36;;;;;;;28.67;16.73;;;12.00;73.40;;;;;;5028907;28;20033;-76
2023/01/01 00:06:11;;;;;;;38.58;23.17;;;12.00;72.60;;;;;;5028757;28;20342;-76
2023/01/01 00:08:37;;;;;;;34.17;20.35;;;12.10;72.80;;;;;;5012672;28;20030;-76
2023/01/01 00:11:04;;;;;;;38.10;24.63;;;12.10;72.90;;;;;;5028740;28;20102;-75
2023/01/01 00:13:32;;;;;;;46.28;29.10;;;12.00;72.70;;;;;;5028647;28;20040;-77
2023/01/01 00:16:08;;;;;;;51.63;29.42;;;12.00;72.90;;;;;;5007303;28;20115;-76
2023/01/01 00:18:34;;;;;;;25.52;15.52;;;12.00;72.80;;;;;;5028899;28;20017;-77
2023/01/01 00:21:05;;;;;;;9.10;4.80;;;12.10;72.00;;;;;;5029469;28;20036;-77
2023/01/01 00:23:31;;;;;;;13.13;7.35;;;12.70;67.50;;;;;;5029380;28;20037;-77
2023/01/01 00:25:57;;;;;;;4.30;2.33;;;13.10;66.00;;;;;;5031943;28;20426;-80
2023/01/01 00:28:24;;;;;;;4.07;2.70;;;13.50;63.30;;;;;;5032979;28;20474;-77
2023/01/01 00:30:49;;;;;;;7.35;4.25;;;14.10;60.70;;;;;;5031690;28;20030;-77
2023/01/01 00:33:16;;;;;;;15.98;9.13;;;14.30;59.60;;;;;;5031849;28;20030;-77
2023/01/01 00:35:42;;;;;;;16.20;9.45;;;14.20;60.00;;;;;;5031787;28;20062;-78
2023/01/01 00:38:07;;;;;;;28.38;18.60;;;14.20;59.80;;;;;;5032059;28;20029;-76
2023/01/01 00:40:33;;;;;;;56.47;35.92;;;14.10;61.00;;;;;;5031617;28;20135;-76
2023/01/01 00:42:59;;;;;;;49.75;33.63;;;13.90;62.30;;;;;;5031742;28;20034;-76
2023/01/01 00:45:24;;;;;;;54.90;34.22;;;13.60;63.70;;;;;;5031669;28;20480;-76
2023/01/01 00:47:52;;;;;;;41.45;26.88;;;13.30;65.00;;;;;;5031528;28;20041;-76
2023/01/01 00:50:19;;;;;;;44.05;27.23;;;13.10;65.90;;;;;;5031454;28;20021;-76
2023/01/01 00:52:44;;;;;;;50.25;33.25;;;12.90;67.10;;;;;;5031791;28;20018;-76
2023/01/01 00:55:10;;;;;;;58.13;37.30;;;12.70;67.70;;;;;;5031807;28;20120;-76
2023/01/01 00:57:36;;;;;;;69.15;42.30;;;12.60;68.60;;;;;;5032902;28;20021;-76
2023/01/01 01:00:03;;;;;;;64.30;42.15;;;12.40;69.00;;;;;;5031775;28;20037;-76
2023/01/01 01:02:29;;;;;;;76.63;50.53;;;12.30;69.60;;;;;;5031036;28;20123;-76
2023/01/01 01:04:55;;;;;;;81.82;52.58;;;12.20;70.20;;;;;;5031381;28;20049;-77
2023/01/01 01:07:20;;;;;;;87.22;55.35;;;12.00;71.20;;;;;;5031577;28;20922;-76
2023/01/01 01:09:47;;;;;;;86.35;53.00;;;11.80;73.10;;;;;;5118714;27;20076;-76
2023/01/01 01:12:12;;;;;;;82.85;51.95;;;11.60;73.40;;;;;;5135693;27;20432;-75
2023/01/01 01:14:38;;;;;;;77.05;49.17;;;11.40;74.20;;;;;;5141891;27;20027;-76
2023/01/01 01:17:04;;;;;;;76.22;46.88;;;11.30;75.10;;;;;;5149744;27;20524;-76
2023/01/01 01:19:31;;;;;;;70.43;45.72;;;11.10;75.90;;;;;;5070838;27;20026;-76
2023/01/01 01:21:56;;;;;;;61.55;39.72;;;11.10;76.30;;;;;;5031283;28;20042;-76
2023/01/01 01:24:22;;;;;;;61.90;37.08;;;11.10;76.70;;;;;;5030921;28;20478;-76
2023/01/01 01:26:47;;;;;;;53.95;33.05;;;11.10;76.90;;;;;;5030995;28;20413;-75
2023/01/01 01:29:13;;;;;;;55.03;34.92;;;11.10;77.00;;;;;;5031104;28;20120;-76
2023/01/01 01:31:39;;;;;;;54.30;34.60;;;11.10;76.80;;;;;;5030743;28;20022;-76
2023/01/01 01:34:05;;;;;;;69.25;40.00;;;11.10;76.60;;;;;;5030506;28;20504;-76
2023/01/01 01:36:30;;;;;;;69.90;43.85;;;11.00;76.80;;;;;;5031044;28;20022;-76
2023/01/01 01:38:56;;;;;;;58.42;36.50;;;11.10;76.90;;;;;;5030995;28;20033;-76
2023/01/01 01:41:24;;;;;;;54.58;34.58;;;11.00;77.00;;;;;;5030622;28;20370;-76
2023/01/01 01:44:06;;;;;;;52.42;30.02;;;11.00;76.90;;;;;;5030904;28;20033;-76
2023/01/01 01:46:37;;;;;;;47.15;28.30;;;11.10;77.00;;;;;;5030702;28;20025;-84
2023/01/01 01:49:12;;;;;;;39.00;24.00;;;11.10;77.00;;;;;;5031128;28;20030;-85
2023/01/01 01:51:39;;;;;;;33.55;21.75;;;11.10;77.10;;;;;;5031264;28;20040;-84
2023/01/01 01:54:09;;;;;;;33.85;21.88;;;11.10;77.30;;;;;;5030972;28;20025;-86
2023/01/01 01:56:43;;;;;;;25.52;15.82;;;11.20;77.20;;;;;;5031499;28;20116;-86
2023/01/01 01:59:09;;;;;;;21.80;14.60;;;11.20;77.50;;;;;;5031559;28;20022;-86
2023/01/01 02:01:35;;;;;;;20.67;13.13;;;11.20;77.40;;;;;;5031212;28;20038;-85
2023/01/01 02:04:01;;;;;;;18.52;12.52;;;11.20;77.40;;;;;;5031311;28;20022;-83
2023/01/01 02:06:29;;;;;;;17.77;12.60;;;11.20;77.50;;;;;;5031088;28;20057;-85
2023/01/01 02:08:57;;;;;;;20.95;12.45;;;11.20;77.60;;;;;;5031582;28;20022;-86
2023/01/01 02:11:23;;;;;;;15.70;10.25;;;11.20;77.70;;;;;;5031286;28;20597;-86
2023/01/01 02:13:50;;;;;;;16.55;10.27;;;11.20;77.60;;;;;;5031329;28;20123;-86
2023/01/01 02:16:21;;;;;;;13.45;8.02;;;11.20;77.60;;;;;;5031435;28;20028;-87
2023/01/01 02:18:52;;;;;;;14.65;8.30;;;11.20;77.50;;;;;;5031396;28;20048;-87
2023/01/01 02:21:26;;;;;;;13.65;7.82;;;11.30;77.50;;;;;;5030996;28;20033;-86
2023/01/01 02:24:14;;;;;;;15.23;9.93;;;11.30;77.30;;;;;;5031596;28;20033;-87
2023/01/01 02:26:45;;;;;;;16.92;10.68;;;11.30;77.10;;;;;;5031428;28;20018;-86
2023/01/01 02:29:36;;;;;;;18.33;10.70;;;11.20;77.00;;;;;;5030881;28;20495;-77
2023/01/01 02:32:06;;;;;;;16.58;10.50;;;11.20;77.20;;;;;;5046651;28;20033;-77
2023/01/01 02:34:42;;;;;;;17.48;9.52;;;11.20;77.20;;;;;;5029689;28;20485;-76
2023/01/01 02:37:11;;;;;;;15.20;8.90;;;11.20;77.40;;;;;;5030220;28;20032;-76
2023/01/01 02:39:41;;;;;;;13.93;8.80;;;11.20;77.30;;;;;;5030114;28;20025;-76
2023/01/01 02:42:07;;;;;;;16.58;8.55;;;11.20;77.40;;;;;;5029562;28;20523;-77
2023/01/01 02:44:41;;;;;;;13.70;7.70;;;11.20;77.40;;;;;;5030401;28;20115;-86
2023/01/01 02:47:09;;;;;;;11.85;7.47;;;11.20;77.20;;;;;;5029799;28;20373;-84
2023/01/01 02:49:40;;;;;;;10.48;6.97;;;11.20;77.10;;;;;;5030176;28;20028;-85
2023/01/01 02:52:23;;;;;;;11.07;7.70;;;11.20;77.00;;;;;;5029727;28;20043;-85
2023/01/01 02:54:54;;;;;;;13.77;7.00;;;11.20;76.90;;;;;;5030202;28;20053;-84
2023/01/01 02:57:32;;;;;;;12.10;6.85;;;11.10;76.90;;;;;;5030577;28;20022;-85
2023/01/01 03:03:26;;;;;;;14.38;8.13;;;11.10;77.10;;;;;;4970136;28;20042;-83
2023/01/01 03:06:23;;;;;;;12.13;7.20;;;11.10;77.00;;;;;;5024948;28;20041;-82
2023/01/01 03:08:51;;;;;;;10.02;6.65;;;11.00;77.10;;;;;;5029709;28;20025;-83
2023/01/01 03:11:20;;;;;;;12.07;7.68;;;10.90;77.20;;;;;;5029616;28;20025;-80
2023/01/01 03:13:54;;;;;;;14.40;6.30;;;11.00;77.30;;;;;;5029739;28;20049;-83
2023/01/01 03:16:47;;;;;;;10.57;6.53;;;10.90;77.40;;;;;;5029707;28;20446;-80
2023/01/01 03:19:17;;;;;;;10.25;6.28;;;10.90;77.40;;;;;;5029655;28;20018;-81
2023/01/01 03:21:54;;;;;;;9.05;6.43;;;10.80;77.60;;;;;;5029903;28;20060;-84
2023/01/01 03:24:43;;;;;;;9.70;5.97;;;10.80;77.60;;;;;;5030401;28;20473;-81
2023/01/01 03:27:29;;;;;;;12.13;7.03;;;10.70;78.00;;;;;;5020377;28;20147;-82
2023/01/01 03:29:58;;;;;;;12.02;6.00;;;10.70;79.10;;;;;;5029636;28;20048;-81
2023/01/01 03:32:59;;;;;;;12.68;6.30;;;10.70;78.60;;;;;;5029166;28;20077;-80
2023/01/01 03:35:18;;;;;;;11.57;6.13;;;10.70;78.70;;;;;;5031575;28;20456;-77
2023/01/01 03:37:48;;;;;;;10.88;6.00;;;10.70;79.70;;;;;;5041455;28;20482;-78
2023/01/01 03:40:16;;;;;;;9.27;6.03;;;10.70;78.70;;;;;;5043154;28;20022;-77
2023/01/01 03:42:49;;;;;;;7.82;5.63;;;10.70;78.80;;;;;;5044285;28;20064;-79
2023/01/01 03:45:19;;;;;;;11.20;6.00;;;10.70;78.80;;;;;;5035034;28;20495;-82
2023/01/01 03:47:45;;;;;;;11.10;6.43;;;10.70;78.80;;;;;;5030203;28;20052;-81
2023/01/01 03:50:12;;;;;;;11.60;6.55;;;10.70;78.70;;;;;;5030413;28;20469;-83
2023/01/01 03:52:54;;;;;;;8.38;5.80;;;10.60;78.70;;;;;;5031060;28;20481;-82
2023/01/01 03:55:35;;;;;;;10.05;6.30;;;10.50;79.00;;;;;;5029574;28;20407;-84
2023/01/01 03:58:23;;;;;;;9.85;6.25;;;10.50;79.00;;;;;;5030928;28;20034;-84
2023/01/01 04:01:09;;;;;;;11.00;6.72;;;10.50;79.00;;;;;;5032631;28;20030;-81
2023/01/01 04:03:37;;;;;;;13.90;6.82;;;10.50;79.00;;;;;;5032992;28;20037;-82
2023/01/01 04:06:03;;;;;;;10.70;6.43;;;10.50;79.00;;;;;;5016250;28;20089;-81
2023/01/01 04:08:32;;;;;;;10.55;6.70;;;10.50;79.00;;;;;;5032814;28;20022;-81
2023/01/01 04:12:00;;;;;;;11.65;6.20;;;10.50;79.10;;;;;;5032531;28;20029;-80
2023/01/01 04:13:48;;;;;;;11.65;6.60;;;10.40;79.10;;;;;;5033239;28;20074;-81
2023/01/01 04:16:13;;;;;;;10.27;6.35;;;10.40;79.30;;;;;;5032592;28;20025;-81
2023/01/01 04:18:39;;;;;;;12.52;7.03;;;10.40;79.50;;;;;;5032333;28;20017;-81
2023/01/01 04:21:05;;;;;;;10.00;7.00;;;10.40;79.60;;;;;;5015575;28;20026;-81
2023/01/01 04:23:30;;;;;;;12.75;6.80;;;10.40;79.60;;;;;;5032185;28;20063;-79
2023/01/01 04:25:56;;;;;;;11.85;6.68;;;10.40;79.60;;;;;;5032430;28;20055;-81
2023/01/01 04:28:22;;;;;;;11.82;6.65;;;10.30;79.60;;;;;;5015753;28;20033;-82
2023/01/01 04:30:47;;;;;;;11.10;7.28;;;10.40;79.60;;;;;;5031983;28;20061;-79
2023/01/01 04:33:13;;;;;;;12.52;7.20;;;10.30;80.00;;;;;;5031986;28;20017;-79
2023/01/01 04:35:38;;;;;;;8.93;6.13;;;10.20;80.10;;;;;;5015760;28;20390;-80
2023/01/01 04:38:05;;;;;;;12.93;6.70;;;10.20;80.10;;;;;;5035224;28;20026;-78
2023/01/01 04:40:30;;;;;;;9.80;6.55;;;10.20;80.20;;;;;;5036798;28;20478;-82
2023/01/01 04:42:56;;;;;;;13.85;6.47;;;10.10;80.50;;;;;;5031937;28;20034;-81
2023/01/01 04:45:21;;;;;;;13.95;6.90;;;10.10;80.40;;;;;;5031461;28;20029;-80
2023/01/01 04:47:47;;;;;;;12.88;7.88;;;10.20;80.40;;;;;;5031878;28;20025;-80
2023/01/01 04:50:13;;;;;;;11.18;6.85;;;10.10;80.10;;;;;;5031679;28;20053;-80
2023/01/01 04:52:38;;;;;;;9.70;6.30;;;10.10;80.30;;;;;;5031234;28;20041;-80
2023/01/01 04:55:04;;;;;;;11.57;7.43;;;10.00;80.40;;;;;;5031604;28;20028;-80
2023/01/01 04:57:30;;;;;;;10.90;6.93;;;9.90;80.50;;;;;;5031653;28;20179;-81
2023/01/01 04:59:56;;;;;;;11.30;6.93;;;9.90;80.60;;;;;;5031454;28;20116;-82
2023/01/01 05:02:21;;;;;;;14.23;6.72;;;9.80;80.90;;;;;;5031130;28;20137;-79
2023/01/01 05:04:47;;;;;;;13.43;7.20;;;9.80;81.00;;;;;;5031424;28;20513;-79
2023/01/01 05:07:12;;;;;;;10.32;6.53;;;9.90;81.20;;;;;;5031146;28;20394;-80
2023/01/01 05:09:38;;;;;;;9.95;6.43;;;9.80;81.10;;;;;;5030839;28;20081;-81
2023/01/01 05:12:03;;;;;;;11.43;6.53;;;9.90;81.10;;;;;;5031301;28;20097;-80
2023/01/01 05:14:29;;;;;;;10.80;6.35;;;9.90;81.20;;;;;;5031062;28;20017;-79
2023/01/01 05:16:54;;;;;;;10.63;6.38;;;9.90;81.10;;;;;;5031045;28;20032;-80
2023/01/01 05:19:22;;;;;;;11.30;7.07;;;9.90;81.00;;;;;;5031408;28;20074;-79
2023/01/01 05:21:47;;;;;;;9.25;6.03;;;9.90;81.00;;;;;;5031083;28;20033;-79
2023/01/01 05:24:13;;;;;;;14.02;6.70;;;9.90;81.10;;;;;;5030855;28;20432;-81
2023/01/01 05:26:41;;;;;;;11.25;6.45;;;10.00;81.00;;;;;;5031387;28;20469;-80
2023/01/01 05:29:07;;;;;;;10.75;5.78;;;9.90;81.20;;;;;;5031303;28;20381;-80
2023/01/01 05:31:35;;;;;;;9.15;6.30;;;10.00;81.10;;;;;;5030934;28;20026;-81
2023/01/01 05:34:01;;;;;;;11.00;5.88;;;10.00;81.30;;;;;;5031054;28;20048;-81
2023/01/01 05:36:30;;;;;;;9.57;5.95;;;10.00;81.20;;;;;;5031183;28;20029;-81
2023/01/01 05:38:56;;;;;;;10.73;5.97;;;10.00;81.00;;;;;;5031385;28;20389;-83
2023/01/01 05:41:22;;;;;;;11.15;6.32;;;10.00;80.80;;;;;;5030700;28;20048;-83
2023/01/01 05:43:49;;;;;;;10.90;6.30;;;10.10;80.90;;;;;;5031286;28;20061;-83
2023/01/01 05:46:23;;;;;;;9.82;5.70;;;10.10;80.80;;;;;;5031144;28;20095;-78
2023/01/01 05:48:49;;;;;;;9.32;6.40;;;10.10;80.90;;;;;;5030893;28;20057;-79
2023/01/01 05:51:24;;;;;;;11.25;6.70;;;10.10;81.10;;;;;;5030568;28;20025;-81
2023/01/01 05:53:50;;;;;;;11.05;5.85;;;10.20;81.20;;;;;;5030990;28;20034;-80
2023/01/01 05:56:17;;;;;;;10.27;6.47;;;10.20;81.10;;;;;;5030776;28;20032;-81
2023/01/01 05:58:43;;;;;;;11.18;5.78;;;10.20;80.90;;;;;;5030555;28;20034;-78
2023/01/01 06:01:12;;;;;;;10.75;5.70;;;10.20;80.80;;;;;;5030614;28;20018;-83
2023/01/01 06:03:38;;;;;;;11.30;6.20;;;10.30;80.70;;;;;;5014501;28;20034;-82
2023/01/01 06:06:13;;;;;;;10.00;6.03;;;10.30;80.70;;;;;;5014127;28;20025;-83
2023/01/01 06:08:40;;;;;;;12.23;6.68;;;10.30;80.70;;;;;;5030403;28;20066;-82
2023/01/01 06:11:09;;;;;;;14.70;6.75;;;10.30;80.60;;;;;;5030198;28;20529;-82
2023/01/01 06:13:35;;;;;;;15.38;6.65;;;10.20;80.50;;;;;;5030696;28;20025;-82
2023/01/01 06:16:01;;;;;;;11.23;6.38;;;10.20;80.60;;;;;;5030272;28;20048;-83
2023/01/01 06:18:32;;;;;;;9.38;5.78;;;10.20;80.70;;;;;;5029778;28;20033;-83
2023/01/01 06:21:19;;;;;;;12.50;6.18;;;10.20;80.90;;;;;;5029523;28;20022;-84
2023/01/01 06:23:45;;;;;;;11.15;5.60;;;10.20;80.90;;;;;;5030695;28;20125;-83
2023/01/01 06:26:14;;;;;;;12.38;6.10;;;10.20;80.90;;;;;;5030591;28;20041;-84
2023/01/01 06:28:40;;;;;;;10.25;5.32;;;10.10;80.90;;;;;;5030259;28;20029;-83
2023/01/01 06:31:08;;;;;;;7.40;5.28;;;10.20;80.90;;;;;;5030914;28;20024;-85
2023/01/01 06:33:34;;;;;;;9.48;5.30;;;10.20;80.80;;;;;;5030860;28;20037;-85
2023/01/01 06:36:02;;;;;;;11.52;5.50;;;10.20;80.60;;;;;;5030418;28;20049;-85
2023/01/01 06:38:32;;;;;;;9.65;6.13;;;10.20;80.50;;;;;;5030460;28;20395;-86
2023/01/01 06:41:01;;;;;;;9.27;5.30;;;10.20;80.40;;;;;;5030725;28;20401;-86
2023/01/01 06:43:29;;;;;;;8.30;5.60;;;10.20;80.30;;;;;;5030598;28;20033;-83
2023/01/01 06:45:59;;;;;;;8.38;5.22;;;10.20;80.40;;;;;;5030422;28;20022;-86
2023/01/01 06:48:26;;;;;;;10.45;5.10;;;10.20;80.30;;;;;;5030277;28;20030;-85
2023/01/01 06:50:52;;;;;;;8.90;4.78;;;10.30;80.30;;;;;;5029821;28;20029;-80
2023/01/01 06:53:17;;;;;;;7.10;4.43;;;10.30;80.10;;;;;;5030127;28;20021;-83
2023/01/01 06:55:49;;;;;;;9.40;5.68;;;10.30;79.90;;;;;;5030206;28;20069;-80
2023/01/01 06:58:14;;;;;;;13.00;7.55;;;10.40;79.70;;;;;;5029806;28;20017;-82
2023/01/01 07:00:40;;;;;;;12.10;7.47;;;10.30;79.50;;;;;;5029748;28;20029;-83
2023/01/01 07:03:08;;;;;;;9.85;5.72;;;10.30;79.60;;;;;;5029494;28;20114;-80
2023/01/01 07:05:33;;;;;;;12.50;5.00;;;10.40;79.40;;;;;;5029715;28;20032;-80
2023/01/01 07:07:59;;;;;;;7.95;5.03;;;10.30;79.30;;;;;;5029755;28;20025;-81
2023/01/01 07:10:24;;;;;;;9.30;4.90;;;10.30;79.40;;;;;;5029834;28;20049;-80
2023/01/01 07:12:50;;;;;;;8.07;5.25;;;10.30;79.20;;;;;;5029261;28;20033;-80
2023/01/01 07:15:15;;;;;;;15.70;8.48;;;10.30;79.20;;;;;;5029705;28;20021;-82
2023/01/01 07:17:41;;;;;;;12.40;6.78;;;10.20;79.10;;;;;;5029466;28;20444;-79
2023/01/01 07:20:07;;;;;;;8.02;5.30;;;10.30;79.40;;;;;;5029534;28;20139;-80
2023/01/01 07:22:34;;;;;;;10.23;5.60;;;10.20;79.00;;;;;;5029246;28;20493;-82
2023/01/01 07:24:59;;;;;;;9.40;4.93;;;10.20;79.00;;;;;;5029182;28;20053;-79
2023/01/01 07:27:25;;;;;;;8.50;5.75;;;10.30;79.10;;;;;;5029393;28;20064;-78
2023/01/01 07:29:50;;;;;;;9.27;4.78;;;10.30;79.10;;;;;;5029363;28;20025;-79
2023/01/01 07:32:16;;;;;;;8.07;4.70;;;10.30;79.10;;;;;;5028777;28;20036;-81
2023/01/01 07:34:41;;;;;;;7.63;4.68;;;10.20;79.80;;;;;;5029089;28;20045;-81
2023/01/01 07:37:07;;;;;;;6.65;4.63;;;10.30;79.10;;;;;;5029050;28;20069;-81
2023/01/01 07:39:32;;;;;;;7.85;5.25;;;10.30;79.10;;;;;;5012521;28;20035;-82
2023/01/01 07:41:59;;;;;;;7.30;4.45;;;10.40;78.60;;;;;;5028895;28;20121;-80
2023/01/01 07:44:26;;;;;;;7.63;4.50;;;10.40;77.60;;;;;;5012701;28;20042;-81
2023/01/01 07:47:01;;;;;;;8.07;4.70;;;10.60;76.40;;;;;;5012822;28;20090;-82
2023/01/01 07:49:27;;;;;;;8.95;4.30;;;10.80;75.40;;;;;;5029127;28;20022;-83
2023/01/01 07:51:52;;;;;;;8.23;4.18;;;10.90;74.90;;;;;;5029283;28;20033;-84
2023/01/01 07:54:18;;;;;;;8.68;4.50;;;11.00;74.30;;;;;;5029224;28;20037;-85
2023/01/01 07:56:43;;;;;;;6.63;3.88;;;11.20;74.40;;;;;;5029123;28;20473;-84
2023/01/01 07:59:09;;;;;;;8.13;4.60;;;11.20;72.40;;;;;;5029531;28;20048;-85
2023/01/01 08:01:36;;;;;;;7.20;4.38;;;11.30;72.00;;;;;;5029571;28;20136;-87
2023/01/01 08:04:01;;;;;;;10.23;4.40;;;11.50;71.20;;;;;;5029469;28;20420;-86
2023/01/01 08:06:27;;;;;;;6.25;4.38;;;11.50;70.10;;;;;;5036906;28;20034;-84
2023/01/01 08:08:53;;;;;;;10.07;4.60;;;11.60;69.70;;;;;;5044385;27;20023;-82
2023/01/01 08:11:18;;;;;;;9.43;4.35;;;11.60;69.40;;;;;;5049794;28;20014;-84
2023/01/01 08:13:45;;;;;;;10.00;4.78;;;11.70;68.80;;;;;;5034194;28;20044;-93
2023/01/01 08:16:11;;;;;;;9.02;4.93;;;11.80;68.00;;;;;;5028849;28;20029;-79
2023/01/01 08:18:36;;;;;;;7.78;3.83;;;11.80;67.10;;;;;;5023950;28;20022;-77
2023/01/01 08:21:03;;;;;;;10.18;3.50;;;11.90;66.20;;;;;;5028486;28;20025;-82
2023/01/01 08:23:29;;;;;;;10.55;4.82;;;12.00;65.30;;;;;;5028490;28;20526;-82
2023/01/01 08:26:01;;;;;;;6.00;3.35;;;12.20;65.30;;;;;;5028572;28;20025;-81
2023/01/01 08:28:28;;;;;;;11.65;4.65;;;12.30;64.20;;;;;;5028567;28;20033;-81
2023/01/01 08:30:53;;;;;;;10.35;4.43;;;12.40;63.80;;;;;;5028206;28;20124;-81
2023/01/01 08:33:21;;;;;;;9.30;4.72;;;12.50;63.80;;;;;;5028473;28;20162;-82
2023/01/01 08:35:48;;;;;;;9.57;4.22;;;12.50;63.60;;;;;;5028508;28;20025;-82
2023/01/01 08:38:14;;;;;;;8.80;4.22;;;12.50;63.50;;;;;;5028331;28;20154;-82
2023/01/01 08:40:40;;;;;;;7.75;3.97;;;12.60;63.10;;;;;;5028174;28;20477;-83
2023/01/01 08:43:05;;;;;;;11.93;4.85;;;12.60;63.00;;;;;;5027955;28;20041;-83
2023/01/01 08:45:32;;;;;;;9.55;4.40;;;12.70;63.20;;;;;;5029875;28;20477;-81
2023/01/01 08:47:59;;;;;;;6.53;4.00;;;12.60;63.10;;;;;;5031712;28;20359;-82
2023/01/01 08:50:24;;;;;;;8.82;4.05;;;12.60;63.40;;;;;;5015447;28;20033;-81
2023/01/01 08:52:50;;;;;;;8.60;5.40;;;12.70;63.60;;;;;;5031619;28;20029;-83
2023/01/01 08:55:16;;;;;;;7.45;4.35;;;12.80;64.00;;;;;;5014793;28;20026;-82
2023/01/01 08:57:41;;;;;;;6.38;3.85;;;13.00;64.30;;;;;;5031560;28;20037;-82
2023/01/01 09:00:08;;;;;;;6.50;3.33;;;13.20;64.30;;;;;;5031515;28;20022;-82
2023/01/01 09:02:34;;;;;;;5.72;4.18;;;13.30;64.00;;;;;;5031441;28;20401;-82
2023/01/01 09:04:59;;;;;;;7.53;4.30;;;13.50;63.50;;;;;;5031356;28;20026;-81
2023/01/01 09:07:26;;;;;;;7.50;3.72;;;13.80;62.90;;;;;;5031369;28;20029;-82
2023/01/01 09:09:52;;;;;;;6.47;3.88;;;14.00;62.10;;;;;;5031389;28;20087;-84
2023/01/01 09:16:31;;;;;;;7.20;3.60;;;14.50;60.90;;;;;;5033793;28;20393;-87
2023/01/01 09:22:29;;;;;;;8.50;4.00;;;15.50;59.70;;;;;;5000146;28;20056;-86
2023/01/01 09:25:48;;;;;;;9.98;3.83;;;16.00;56.80;;;;;;5032747;28;20022;-87
2023/01/01 09:29:19;;;;;;;6.93;3.03;;;16.50;54.90;;;;;;5034481;28;20037;-86
2023/01/01 09:32:18;;;;;;;6.22;2.63;;;16.90;53.10;;;;;;5032218;28;20436;-86
2023/01/01 09:35:04;;;;;;;4.93;2.65;;;17.30;51.00;;;;;;5032304;28;20045;-86
2023/01/01 09:37:30;;;;;;;5.20;2.63;;;17.50;49.70;;;;;;5016980;28;20033;-87
2023/01/01 09:39:56;;;;;;;8.15;3.00;;;17.50;49.30;;;;;;5043945;28;20093;-88
2023/01/01 09:42:22;;;;;;;5.60;2.92;;;17.40;49.20;;;;;;5047572;28;20074;-85
2023/01/01 09:45:12;;;;;;;7.22;3.17;;;17.30;49.80;;;;;;5049781;28;20139;-85
2023/01/01 09:47:42;;;;;;;3.80;2.42;;;17.20;50.20;;;;;;5047736;28;20029;-85
2023/01/01 09:50:20;;;;;;;4.38;2.35;;;17.10;50.70;;;;;;5048664;28;20160;-85
2023/01/01 09:52:56;;;;;;;6.10;3.30;;;17.00;50.70;;;;;;5048078;28;20025;-80
2023/01/01 09:55:52;;;;;;;10.23;5.72;;;17.10;50.80;;;;;;5055457;28;20041;-78
2023/01/01 09:58:23;;;;;;;6.68;3.05;;;17.10;51.00;;;;;;5056235;27;20014;-76
2023/01/01 10:00:53;;;;;;;4.95;2.72;;;17.20;51.10;;;;;;5056074;27;20017;-81
2023/01/01 10:03:31;;;;;;;6.35;3.17;;;17.30;50.90;;;;;;5045151;28;20082;-85
2023/01/01 10:06:07;;;;;;;5.20;3.08;;;17.30;50.40;;;;;;5035842;28;20028;-83
2023/01/01 10:08:38;;;;;;;3.13;2.40;;;17.30;51.30;;;;;;5031964;28;20055;-84
2023/01/01 10:11:10;;;;;;;4.75;2.50;;;17.40;50.30;;;;;;5032772;28;20034;-85
2023/01/01 10:13:38;;;;;;;4.10;2.55;;;17.40;50.60;;;;;;5031229;28;20096;-84
2023/01/01 10:16:10;;;;;;;6.40;3.35;;;17.60;50.30;;;;;;5031081;28;20022;-85
2023/01/01 10:18:37;;;;;;;4.75;3.00;;;17.80;49.70;;;;;;5042392;27;20074;-85
2023/01/01 10:21:14;;;;;;;7.82;3.92;;;18.00;49.00;;;;;;5134556;27;20031;-82
2023/01/01 10:23:59;;;;;;;4.43;3.03;;;18.20;48.50;;;;;;5134407;27;20042;-80
2023/01/01 10:26:28;;;;;;;5.32;2.55;;;18.40;48.10;;;;;;5134366;27;20023;-84
2023/01/01 10:29:03;;;;;;;4.03;2.58;;;18.60;47.70;;;;;;5134150;27;20034;-82
2023/01/01 10:31:39;;;;;;;4.20;2.55;;;18.70;47.00;;;;;;5151882;27;20019;-81
2023/01/01 10:34:24;;;;;;;5.20;2.22;;;18.80;46.60;;;;;;5134436;27;20110;-83
2023/01/01 10:36:53;;;;;;;7.28;3.00;;;18.90;46.30;;;;;;5134201;27;20079;-80
2023/01/01 10:39:19;;;;;;;4.50;2.35;;;19.20;46.00;;;;;;5133844;27;20023;-79
2023/01/01 10:41:45;;;;;;;4.80;2.78;;;19.30;45.10;;;;;;5133917;27;20043;-82
2023/01/01 10:44:13;;;;;;;6.75;3.30;;;19.40;44.40;;;;;;5134331;27;20026;-78
2023/01/01 10:46:45;;;;;;;5.50;2.00;;;19.50;43.90;;;;;;5151513;27;20118;-79
2023/01/01 10:49:13;;;;;;;6.38;2.45;;;19.50;43.90;;;;;;5151143;27;20030;-82
2023/01/01 10:51:55;;;;;;;6.45;3.40;;;19.40;43.60;;;;;;5134018;27;20019;-83
2023/01/01 10:54:33;;;;;;;6.47;3.03;;;19.10;44.90;;;;;;5130576;27;20027;-83
2023/01/01 10:57:11;;;;;;;5.95;2.92;;;19.10;44.90;;;;;;5133870;27;20019;-81
2023/01/01 10:59:39;;;;;;;8.25;3.20;;;19.00;44.90;;;;;;5149976;27;20069;-79
2023/01/01 11:02:24;;;;;;;6.10;2.47;;;19.10;44.90;;;;;;5132805;27;20592;-82
2023/01/01 11:04:51;;;;;;;5.85;2.42;;;19.10;45.10;;;;;;5134773;27;20038;-81
2023/01/01 11:07:30;;;;;;;5.47;2.47;;;19.20;44.40;;;;;;5133165;27;20080;-80
2023/01/01 11:10:02;;;;;;;5.93;3.00;;;19.40;43.90;;;;;;5133783;27;20023;-82
2023/01/01 11:12:38;;;;;;;6.25;3.00;;;19.60;43.30;;;;;;5133435;27;20042;-81
2023/01/01 11:15:05;;;;;;;6.20;3.58;;;19.80;42.60;;;;;;5134739;27;20467;-80
2023/01/01 11:17:34;;;;;;;4.97;2.40;;;20.30;41.50;;;;;;5138448;27;20458;-80
2023/01/01 11:20:01;;;;;;;5.70;2.72;;;20.90;41.20;;;;;;5117111;27;20110;-84
2023/01/01 11:22:40;;;;;;;5.82;2.60;;;21.30;39.40;;;;;;5133590;27;20042;-82
2023/01/01 11:25:25;;;;;;;4.78;2.47;;;21.80;38.20;;;;;;5133075;27;20030;-83
2023/01/01 11:28:12;;;;;;;3.60;2.70;;;22.40;37.20;;;;;;5134409;27;20019;-78
2023/01/01 11:30:38;;;;;;;5.82;3.00;;;22.90;36.10;;;;;;5153136;27;20034;-78
2023/01/01 11:33:05;;;;;;;7.30;2.75;;;23.40;34.80;;;;;;5142711;27;20037;-79
2023/01/01 11:35:37;;;;;;;5.72;2.72;;;24.00;34.10;;;;;;5135431;27;20479;-78
2023/01/01 11:38:04;;;;;;;7.85;2.40;;;24.70;32.30;;;;;;5150562;27;20045;-81
2023/01/01 11:40:39;;;;;;;4.88;2.13;;;25.20;30.30;;;;;;5134058;27;20068;-77
2023/01/01 11:43:07;;;;;;;6.28;2.85;;;25.60;29.00;;;;;;5119768;27;20073;-77
2023/01/01 11:45:40;;;;;;;6.25;2.88;;;26.30;28.60;;;;;;5131494;27;20035;-76
2023/01/01 11:48:21;;;;;;;4.78;2.45;;;26.30;28.10;;;;;;5133242;27;20027;-76
2023/01/01 11:50:59;;;;;;;4.65;2.22;;;25.90;28.60;;;;;;5117007;28;20395;-76
2023/01/01 11:53:34;;;;;;;4.40;2.63;;;26.10;29.10;;;;;;5116713;28;20399;-77
2023/01/01 11:56:27;;;;;;;7.70;2.95;;;26.60;28.10;;;;;;5133720;27;20487;-76
2023/01/01 11:59:14;;;;;;;7.82;3.08;;;26.60;27.40;;;;;;5118035;28;20031;-78
2023/01/01 12:02:03;;;;;;;5.35;2.65;;;26.70;27.20;;;;;;5137446;28;20027;-77
2023/01/01 12:05:00;;;;;;;3.75;2.17;;;27.20;27.20;;;;;;5099369;28;20080;-75
2023/01/01 12:07:33;;;;;;;5.75;2.80;;;27.60;25.80;;;;;;5132479;28;20033;-75
2023/01/01 12:10:05;;;;;;;3.92;2.50;;;28.20;25.00;;;;;;5132713;28;20403;-75
2023/01/01 12:12:38;;;;;;;4.35;2.35;;;28.30;24.50;;;;;;5115829;28;20481;-75
2023/01/01 12:15:24;;;;;;;3.35;2.10;;;28.90;23.50;;;;;;5149902;27;20505;-78
2023/01/01 12:18:11;;;;;;;4.53;1.98;;;28.70;22.60;;;;;;5131561;28;20487;-75
2023/01/01 12:20:51;;;;;;;9.27;2.22;;;27.90;23.40;;;;;;5138200;27;20157;-75
2023/01/01 12:23:18;;;;;;;5.28;2.20;;;28.00;24.20;;;;;;5136974;27;20024;-75
2023/01/01 12:25:54;;;;;;;4.75;2.15;;;28.70;23.20;;;;;;5102751;27;20023;-75
2023/01/01 12:28:35;;;;;;;7.22;2.10;;;28.90;22.60;;;;;;5119561;27;20110;-76
2023/01/01 12:31:31;;;;;;;3.60;2.13;;;29.40;21.90;;;;;;5136415;27;20034;-76
2023/01/01 12:34:29;;;;;;;8.68;2.45;;;30.10;20.90;;;;;;5137862;27;20432;-76
2023/01/01 12:37:19;;;;;;;6.43;2.28;;;30.30;20.20;;;;;;5136352;27;20086;-76
2023/01/01 12:40:08;;;;;;;7.28;2.25;;;30.30;20.20;;;;;;5136474;27;20023;-77
2023/01/01 12:43:05;;;;;;;9.88;2.40;;;30.40;19.60;;;;;;5135909;27;20054;-74
2023/01/01 12:46:07;;;;;;;7.90;2.20;;;31.00;19.40;;;;;;5136212;27;20035;-78
2023/01/01 12:49:11;;;;;;;9.65;2.35;;;30.90;19.00;;;;;;5137758;27;20055;-77
2023/01/01 12:51:50;;;;;;;8.48;2.45;;;30.90;18.60;;;;;;5136251;27;20028;-73
2023/01/01 12:55:02;;;;;;;9.30;2.50;;;30.20;19.30;;;;;;5136254;27;20474;-74
2023/01/01 12:57:53;;;;;;;4.13;2.20;;;29.60;20.00;;;;;;5135606;27;20055;-79
2023/01/01 13:00:19;;;;;;;3.97;2.22;;;29.20;21.30;;;;;;5137491;27;20049;-76
2023/01/01 13:02:56;;;;;;;2.67;1.80;;;29.30;21.20;;;;;;5136080;27;20371;-80
2023/01/01 13:05:42;;;;;;;4.72;2.53;;;29.90;20.30;;;;;;5136681;27;20454;-78
2023/01/01 13:08:08;;;;;;;5.70;2.08;;;30.20;19.80;;;;;;5136515;27;20020;-79
2023/01/01 13:10:46;;;;;;;3.15;1.95;;;30.00;19.80;;;;;;5136491;27;20020;-78
2023/01/01 13:13:13;;;;;;;6.03;2.20;;;29.20;20.90;;;;;;5136098;27;20051;-76